sensor_id;sensor_type;location;lat;lon;timestamp;temperature;humidity
56512;DHT22;42408;53.238;5.686;2023-04-03T00:02:07;2.30;99.90
56512;DHT22;42408;53.238;5.686;2023-04-03T00:04:33;2.30;99.90
56512;DHT22;42408;53.238;5.686;2023-04-03T00:06:59;2.30;99.90
56512;DHT22;42408;53.238;5.686;2023-04-03T00:09:25;2.20;99.90
56512;DHT22;42408;53.238;5.686;2023-04-03T00:11:50;2.20;99.90
56512;DHT22;42408;53.238;5.686;2023-04-03T00:14:16;2.20;99.90
56512;DHT22;42408;53.238;5.686;2023-04-03T00:16:42;2.20;99.90
56512;DHT22;42408;53.238;5.686;2023-04-03T00:19:07;2.20;99.90
56512;DHT22;42408;53.238;5.686;2023-04-03T00:21:33;2.10;99.90
56512;DHT22;42408;53.238;5.686;2023-04-03T00:23:59;2.10;99.90
56512;DHT22;42408;53.238;5.686;2023-04-03T00:26:25;2.00;99.90
56512;DHT22;42408;53.238;5.686;2023-04-03T00:28:50;2.00;99.90
56512;DHT22;42408;53.238;5.686;2023-04-03T00:31:17;1.90;99.90
56512;DHT22;42408;53.238;5.686;2023-04-03T00:33:42;1.90;99.90
56512;DHT22;42408;53.238;5.686;2023-04-03T00:36:09;1.90;99.90
56512;DHT22;42408;53.238;5.686;2023-04-03T00:38:35;1.80;99.90
56512;DHT22;42408;53.238;5.686;2023-04-03T00:41:01;1.80;99.90
56512;DHT22;42408;53.238;5.686;2023-04-03T00:43:27;1.90;99.90
56512;DHT22;42408;53.238;5.686;2023-04-03T00:45:55;1.80;99.90
56512;DHT22;42408;53.238;5.686;2023-04-03T00:48:25;1.80;99.90
56512;DHT22;42408;53.238;5.686;2023-04-03T00:50:52;1.80;99.90
56512;DHT22;42408;53.238;5.686;2023-04-03T00:53:21;1.80;99.90
56512;DHT22;42408;53.238;5.686;2023-04-03T00:55:49;1.70;99.90
56512;DHT22;42408;53.238;5.686;2023-04-03T00:58:18;1.70;99.90
56512;DHT22;42408;53.238;5.686;2023-04-03T01:00:48;1.70;99.90
56512;DHT22;42408;53.238;5.686;2023-04-03T01:03:19;1.70;99.90
56512;DHT22;42408;53.238;5.686;2023-04-03T01:05:45;1.70;99.90
56512;DHT22;42408;53.238;5.686;2023-04-03T01:08:11;1.60;99.90
56512;DHT22;42408;53.238;5.686;2023-04-03T01:10:37;1.60;99.90
56512;DHT22;42408;53.238;5.686;2023-04-03T01:13:21;1.60;99.90
56512;DHT22;42408;53.238;5.686;2023-04-03T01:15:47;1.60;99.90
56512;DHT22;42408;53.238;5.686;2023-04-03T01:18:13;1.60;99.90
56512;DHT22;42408;53.238;5.686;2023-04-03T01:23:32;1.60;99.90
56512;DHT22;42408;53.238;5.686;2023-04-03T01:26:02;1.60;99.90
56512;DHT22;42408;53.238;5.686;2023-04-03T01:28:34;1.50;99.90
56512;DHT22;42408;53.238;5.686;2023-04-03T01:31:22;1.50;99.90
56512;DHT22;42408;53.238;5.686;2023-04-03T01:33:50;1.50;99.90
56512;DHT22;42408;53.238;5.686;2023-04-03T01:36:36;1.50;99.90
56512;DHT22;42408;53.238;5.686;2023-04-03T01:39:02;1.40;99.90
56512;DHT22;42408;53.238;5.686;2023-04-03T01:41:28;1.40;99.90
56512;DHT22;42408;53.238;5.686;2023-04-03T01:43:54;1.40;99.90
56512;DHT22;42408;53.238;5.686;2023-04-03T01:46:20;1.40;99.90
56512;DHT22;42408;53.238;5.686;2023-04-03T01:48:46;1.40;99.90
56512;DHT22;42408;53.238;5.686;2023-04-03T01:51:12;1.30;99.90
56512;DHT22;42408;53.238;5.686;2023-04-03T01:53:38;1.40;99.90
56512;DHT22;42408;53.238;5.686;2023-04-03T01:56:04;1.30;99.90
56512;DHT22;42408;53.238;5.686;2023-04-03T01:58:30;1.30;99.90
56512;DHT22;42408;53.238;5.686;2023-04-03T02:00:55;1.30;99.90
56512;DHT22;42408;53.238;5.686;2023-04-03T02:03:21;1.30;99.90
56512;DHT22;42408;53.238;5.686;2023-04-03T02:05:47;1.30;99.90
56512;DHT22;42408;53.238;5.686;2023-04-03T02:08:13;1.20;99.90
56512;DHT22;42408;53.238;5.686;2023-04-03T02:10:39;1.20;99.90
56512;DHT22;42408;53.238;5.686;2023-04-03T02:13:05;1.20;99.90
56512;DHT22;42408;53.238;5.686;2023-04-03T02:15:31;1.20;99.90
56512;DHT22;42408;53.238;5.686;2023-04-03T02:17:56;1.20;99.90
56512;DHT22;42408;53.238;5.686;2023-04-03T02:20:22;1.10;99.90
56512;DHT22;42408;53.238;5.686;2023-04-03T02:22:48;1.10;99.90
56512;DHT22;42408;53.238;5.686;2023-04-03T02:25:14;1.10;99.90
56512;DHT22;42408;53.238;5.686;2023-04-03T02:27:40;1.20;99.90
56512;DHT22;42408;53.238;5.686;2023-04-03T02:30:06;1.10;99.90
56512;DHT22;42408;53.238;5.686;2023-04-03T02:32:32;1.00;99.90
56512;DHT22;42408;53.238;5.686;2023-04-03T02:34:58;1.10;99.90
56512;DHT22;42408;53.238;5.686;2023-04-03T02:37:24;1.00;99.90
56512;DHT22;42408;53.238;5.686;2023-04-03T02:39:49;1.00;99.90
56512;DHT22;42408;53.238;5.686;2023-04-03T02:42:15;1.00;99.90
56512;DHT22;42408;53.238;5.686;2023-04-03T02:44:41;1.00;99.90
56512;DHT22;42408;53.238;5.686;2023-04-03T02:47:07;1.00;99.90
56512;DHT22;42408;53.238;5.686;2023-04-03T02:49:32;0.90;99.90
56512;DHT22;42408;53.238;5.686;2023-04-03T02:51:58;0.90;99.90
56512;DHT22;42408;53.238;5.686;2023-04-03T02:54:23;0.90;99.90
56512;DHT22;42408;53.238;5.686;2023-04-03T02:56:53;0.80;99.90
56512;DHT22;42408;53.238;5.686;2023-04-03T02:59:19;0.80;99.90
56512;DHT22;42408;53.238;5.686;2023-04-03T03:01:45;0.80;99.90
56512;DHT22;42408;53.238;5.686;2023-04-03T03:04:11;0.80;99.90
56512;DHT22;42408;53.238;5.686;2023-04-03T03:06:36;0.80;99.90
56512;DHT22;42408;53.238;5.686;2023-04-03T03:09:02;0.80;99.90
56512;DHT22;42408;53.238;5.686;2023-04-03T03:11:29;0.80;99.90
56512;DHT22;42408;53.238;5.686;2023-04-03T03:13:57;0.70;99.90
56512;DHT22;42408;53.238;5.686;2023-04-03T03:16:23;0.70;99.90
56512;DHT22;42408;53.238;5.686;2023-04-03T03:18:48;0.70;99.90
56512;DHT22;42408;53.238;5.686;2023-04-03T03:21:14;0.70;99.90
56512;DHT22;42408;53.238;5.686;2023-04-03T03:23:40;0.70;99.90
56512;DHT22;42408;53.238;5.686;2023-04-03T03:26:08;0.60;99.90
56512;DHT22;42408;53.238;5.686;2023-04-03T03:28:35;0.60;99.90
56512;DHT22;42408;53.238;5.686;2023-04-03T03:31:01;0.60;99.90
56512;DHT22;42408;53.238;5.686;2023-04-03T03:33:27;0.60;99.90
56512;DHT22;42408;53.238;5.686;2023-04-03T03:35:54;0.60;99.90
56512;DHT22;42408;53.238;5.686;2023-04-03T03:38:20;0.60;99.90
56512;DHT22;42408;53.238;5.686;2023-04-03T03:40:50;0.60;99.90
56512;DHT22;42408;53.238;5.686;2023-04-03T03:43:16;0.60;99.90
56512;DHT22;42408;53.238;5.686;2023-04-03T03:45:42;0.50;99.90
56512;DHT22;42408;53.238;5.686;2023-04-03T03:48:09;0.50;99.90
56512;DHT22;42408;53.238;5.686;2023-04-03T03:50:35;0.50;99.90
56512;DHT22;42408;53.238;5.686;2023-04-03T03:53:01;0.50;99.90
56512;DHT22;42408;53.238;5.686;2023-04-03T03:55:27;0.50;99.90
56512;DHT22;42408;53.238;5.686;2023-04-03T03:57:53;0.50;99.90
56512;DHT22;42408;53.238;5.686;2023-04-03T04:00:19;0.50;99.90
56512;DHT22;42408;53.238;5.686;2023-04-03T04:02:45;0.40;99.90
56512;DHT22;42408;53.238;5.686;2023-04-03T04:05:11;0.40;99.90
56512;DHT22;42408;53.238;5.686;2023-04-03T04:07:36;0.30;99.90
56512;DHT22;42408;53.238;5.686;2023-04-03T04:10:03;0.30;99.90
56512;DHT22;42408;53.238;5.686;2023-04-03T04:12:29;0.30;99.90
56512;DHT22;42408;53.238;5.686;2023-04-03T04:14:54;0.30;99.90
56512;DHT22;42408;53.238;5.686;2023-04-03T04:17:20;0.30;99.90
56512;DHT22;42408;53.238;5.686;2023-04-03T04:19:46;0.30;99.90
56512;DHT22;42408;53.238;5.686;2023-04-03T04:22:12;0.30;99.90
56512;DHT22;42408;53.238;5.686;2023-04-03T04:24:37;0.20;99.90
56512;DHT22;42408;53.238;5.686;2023-04-03T04:27:03;0.20;99.90
56512;DHT22;42408;53.238;5.686;2023-04-03T04:29:29;0.20;99.90
56512;DHT22;42408;53.238;5.686;2023-04-03T04:31:54;0.10;99.90
56512;DHT22;42408;53.238;5.686;2023-04-03T04:34:20;0.30;99.90
56512;DHT22;42408;53.238;5.686;2023-04-03T04:36:45;0.10;99.90
56512;DHT22;42408;53.238;5.686;2023-04-03T04:39:11;0.00;99.90
56512;DHT22;42408;53.238;5.686;2023-04-03T04:41:37;0.00;99.90
56512;DHT22;42408;53.238;5.686;2023-04-03T04:44:02;0.00;99.90
56512;DHT22;42408;53.238;5.686;2023-04-03T04:46:28;-0.10;99.90
56512;DHT22;42408;53.238;5.686;2023-04-03T04:48:54;-0.10;99.90
56512;DHT22;42408;53.238;5.686;2023-04-03T04:51:20;-0.10;99.90
56512;DHT22;42408;53.238;5.686;2023-04-03T04:53:45;-0.10;99.90
56512;DHT22;42408;53.238;5.686;2023-04-03T04:56:11;-0.10;99.90
56512;DHT22;42408;53.238;5.686;2023-04-03T04:58:37;-0.10;99.90
56512;DHT22;42408;53.238;5.686;2023-04-03T05:01:05;-0.10;99.90
56512;DHT22;42408;53.238;5.686;2023-04-03T05:03:31;-0.10;99.90
56512;DHT22;42408;53.238;5.686;2023-04-03T05:05:57;-0.10;99.90
56512;DHT22;42408;53.238;5.686;2023-04-03T05:08:23;-0.20;99.90
56512;DHT22;42408;53.238;5.686;2023-04-03T05:10:48;-0.20;99.90
56512;DHT22;42408;53.238;5.686;2023-04-03T05:13:14;-0.20;99.90
56512;DHT22;42408;53.238;5.686;2023-04-03T05:15:40;-0.20;99.90
56512;DHT22;42408;53.238;5.686;2023-04-03T05:18:06;-0.10;99.90
56512;DHT22;42408;53.238;5.686;2023-04-03T05:20:32;-0.10;99.90
56512;DHT22;42408;53.238;5.686;2023-04-03T05:22:58;-0.20;99.90
56512;DHT22;42408;53.238;5.686;2023-04-03T05:25:24;-0.20;99.90
56512;DHT22;42408;53.238;5.686;2023-04-03T05:27:50;-0.20;99.90
56512;DHT22;42408;53.238;5.686;2023-04-03T05:30:17;-0.20;99.90
56512;DHT22;42408;53.238;5.686;2023-04-03T05:32:43;-0.20;99.90
56512;DHT22;42408;53.238;5.686;2023-04-03T05:35:09;-0.20;99.90
56512;DHT22;42408;53.238;5.686;2023-04-03T05:37:35;-0.20;99.90
56512;DHT22;42408;53.238;5.686;2023-04-03T05:40:01;-0.20;99.90
56512;DHT22;42408;53.238;5.686;2023-04-03T05:42:27;-0.10;99.90
56512;DHT22;42408;53.238;5.686;2023-04-03T05:44:52;-0.10;99.90
56512;DHT22;42408;53.238;5.686;2023-04-03T05:47:18;-0.10;99.90
56512;DHT22;42408;53.238;5.686;2023-04-03T05:49:44;-0.10;99.90
56512;DHT22;42408;53.238;5.686;2023-04-03T05:52:27;0.00;99.90
56512;DHT22;42408;53.238;5.686;2023-04-03T05:54:54;0.20;99.90
56512;DHT22;42408;53.238;5.686;2023-04-03T05:57:20;0.10;99.90
56512;DHT22;42408;53.238;5.686;2023-04-03T05:59:46;0.20;99.90
56512;DHT22;42408;53.238;5.686;2023-04-03T06:02:14;0.30;99.90
56512;DHT22;42408;53.238;5.686;2023-04-03T06:04:41;0.40;99.90
56512;DHT22;42408;53.238;5.686;2023-04-03T06:07:09;0.60;99.90
56512;DHT22;42408;53.238;5.686;2023-04-03T06:09:36;0.80;99.90
56512;DHT22;42408;53.238;5.686;2023-04-03T06:12:02;1.10;99.90
56512;DHT22;42408;53.238;5.686;2023-04-03T06:14:28;1.70;99.90
56512;DHT22;42408;53.238;5.686;2023-04-03T06:16:53;2.40;99.90
56512;DHT22;42408;53.238;5.686;2023-04-03T06:19:19;3.30;99.90
56512;DHT22;42408;53.238;5.686;2023-04-03T06:21:45;4.40;99.90
56512;DHT22;42408;53.238;5.686;2023-04-03T06:24:14;5.30;99.90
56512;DHT22;42408;53.238;5.686;2023-04-03T06:26:40;5.90;99.90
56512;DHT22;42408;53.238;5.686;2023-04-03T06:29:06;6.40;99.90
56512;DHT22;42408;53.238;5.686;2023-04-03T06:31:31;6.60;99.90
56512;DHT22;42408;53.238;5.686;2023-04-03T06:33:57;6.70;99.90
56512;DHT22;42408;53.238;5.686;2023-04-03T06:36:23;6.90;99.90
56512;DHT22;42408;53.238;5.686;2023-04-03T06:38:48;7.00;99.90
56512;DHT22;42408;53.238;5.686;2023-04-03T06:41:15;7.40;99.90
56512;DHT22;42408;53.238;5.686;2023-04-03T06:43:42;8.30;99.90
56512;DHT22;42408;53.238;5.686;2023-04-03T06:46:15;9.60;99.90
56512;DHT22;42408;53.238;5.686;2023-04-03T06:48:42;10.60;99.90
56512;DHT22;42408;53.238;5.686;2023-04-03T06:53:41;12.10;99.90
56512;DHT22;42408;53.238;5.686;2023-04-03T06:56:07;12.40;99.90
56512;DHT22;42408;53.238;5.686;2023-04-03T06:58:33;12.40;99.10
56512;DHT22;42408;53.238;5.686;2023-04-03T07:00:59;12.50;99.70
56512;DHT22;42408;53.238;5.686;2023-04-03T07:03:25;12.70;99.30
56512;DHT22;42408;53.238;5.686;2023-04-03T07:05:51;12.50;98.30
56512;DHT22;42408;53.238;5.686;2023-04-03T07:08:16;12.30;98.40
56512;DHT22;42408;53.238;5.686;2023-04-03T07:10:42;12.00;99.40
56512;DHT22;42408;53.238;5.686;2023-04-03T07:13:07;12.20;98.70
56512;DHT22;42408;53.238;5.686;2023-04-03T07:15:33;12.30;98.40
56512;DHT22;42408;53.238;5.686;2023-04-03T07:17:59;12.60;98.60
56512;DHT22;42408;53.238;5.686;2023-04-03T07:20:25;12.60;97.90
56512;DHT22;42408;53.238;5.686;2023-04-03T07:22:50;12.40;98.70
56512;DHT22;42408;53.238;5.686;2023-04-03T07:25:16;12.20;98.20
56512;DHT22;42408;53.238;5.686;2023-04-03T07:27:42;12.10;98.70
56512;DHT22;42408;53.238;5.686;2023-04-03T07:30:08;11.90;99.00
56512;DHT22;42408;53.238;5.686;2023-04-03T07:32:34;11.80;99.40
56512;DHT22;42408;53.238;5.686;2023-04-03T07:35:00;11.70;99.90
56512;DHT22;42408;53.238;5.686;2023-04-03T07:37:26;11.50;99.60
56512;DHT22;42408;53.238;5.686;2023-04-03T07:39:51;11.40;99.70
56512;DHT22;42408;53.238;5.686;2023-04-03T07:42:17;11.50;99.90
56512;DHT22;42408;53.238;5.686;2023-04-03T07:44:43;11.40;99.90
56512;DHT22;42408;53.238;5.686;2023-04-03T07:47:09;11.50;99.90
56512;DHT22;42408;53.238;5.686;2023-04-03T07:49:34;11.60;99.90
56512;DHT22;42408;53.238;5.686;2023-04-03T07:52:03;11.70;99.90
56512;DHT22;42408;53.238;5.686;2023-04-03T07:54:29;11.80;99.90
56512;DHT22;42408;53.238;5.686;2023-04-03T07:56:55;11.70;99.90
56512;DHT22;42408;53.238;5.686;2023-04-03T07:59:22;11.70;99.20
56512;DHT22;42408;53.238;5.686;2023-04-03T08:01:47;11.60;99.40
56512;DHT22;42408;53.238;5.686;2023-04-03T08:04:13;11.50;98.70
56512;DHT22;42408;53.238;5.686;2023-04-03T08:06:39;11.60;99.60
56512;DHT22;42408;53.238;5.686;2023-04-03T08:09:04;11.50;99.00
56512;DHT22;42408;53.238;5.686;2023-04-03T08:11:30;11.50;99.90
56512;DHT22;42408;53.238;5.686;2023-04-03T08:13:56;11.60;99.00
56512;DHT22;42408;53.238;5.686;2023-04-03T08:16:23;11.60;96.30
56512;DHT22;42408;53.238;5.686;2023-04-03T08:18:51;11.30;95.00
56512;DHT22;42408;53.238;5.686;2023-04-03T08:21:16;11.20;94.80
56512;DHT22;42408;53.238;5.686;2023-04-03T08:23:42;11.30;96.30
56512;DHT22;42408;53.238;5.686;2023-04-03T08:26:09;11.40;96.90
56512;DHT22;42408;53.238;5.686;2023-04-03T08:28:35;11.60;96.70
56512;DHT22;42408;53.238;5.686;2023-04-03T08:31:06;11.60;96.80
56512;DHT22;42408;53.238;5.686;2023-04-03T08:33:33;11.70;94.60
56512;DHT22;42408;53.238;5.686;2023-04-03T08:35:59;11.80;96.70
56512;DHT22;42408;53.238;5.686;2023-04-03T08:38:25;11.80;95.80
56512;DHT22;42408;53.238;5.686;2023-04-03T08:43:55;11.90;91.70
56512;DHT22;42408;53.238;5.686;2023-04-03T08:46:26;11.80;89.20
56512;DHT22;42408;53.238;5.686;2023-04-03T08:48:54;11.70;93.90
56512;DHT22;42408;53.238;5.686;2023-04-03T08:51:22;11.60;93.70
56512;DHT22;42408;53.238;5.686;2023-04-03T08:54:04;11.70;92.10
56512;DHT22;42408;53.238;5.686;2023-04-03T08:56:33;11.70;94.30
56512;DHT22;42408;53.238;5.686;2023-04-03T08:59:05;11.70;94.30
56512;DHT22;42408;53.238;5.686;2023-04-03T09:01:36;11.70;92.40
56512;DHT22;42408;53.238;5.686;2023-04-03T09:04:08;11.80;91.40
56512;DHT22;42408;53.238;5.686;2023-04-03T09:06:36;11.70;92.20
56512;DHT22;42408;53.238;5.686;2023-04-03T09:09:40;11.70;92.40
56512;DHT22;42408;53.238;5.686;2023-04-03T09:22:45;12.00;83.20
56512;DHT22;42408;53.238;5.686;2023-04-03T09:25:20;12.00;77.20
56512;DHT22;42408;53.238;5.686;2023-04-03T09:27:47;12.00;82.40
56512;DHT22;42408;53.238;5.686;2023-04-03T09:30:15;12.10;79.70
56512;DHT22;42408;53.238;5.686;2023-04-03T09:32:43;12.00;75.90
56512;DHT22;42408;53.238;5.686;2023-04-03T09:37:41;11.90;80.00
56512;DHT22;42408;53.238;5.686;2023-04-03T09:40:30;11.80;81.40
56512;DHT22;42408;53.238;5.686;2023-04-03T09:43:01;11.90;83.90
56512;DHT22;42408;53.238;5.686;2023-04-03T09:45:32;12.00;79.80
56512;DHT22;42408;53.238;5.686;2023-04-03T09:50:30;12.00;76.00
56512;DHT22;42408;53.238;5.686;2023-04-03T09:52:56;12.00;77.20
56512;DHT22;42408;53.238;5.686;2023-04-03T09:55:26;12.00;77.90
56512;DHT22;42408;53.238;5.686;2023-04-03T09:57:55;12.10;67.00
56512;DHT22;42408;53.238;5.686;2023-04-03T10:00:23;12.20;70.70
56512;DHT22;42408;53.238;5.686;2023-04-03T10:02:54;12.20;69.40
56512;DHT22;42408;53.238;5.686;2023-04-03T10:05:38;12.10;66.00
56512;DHT22;42408;53.238;5.686;2023-04-03T10:08:27;12.10;64.80
56512;DHT22;42408;53.238;5.686;2023-04-03T10:11:08;12.10;64.60
56512;DHT22;42408;53.238;5.686;2023-04-03T10:13:35;12.20;70.90
56512;DHT22;42408;53.238;5.686;2023-04-03T10:16:12;12.30;68.70
56512;DHT22;42408;53.238;5.686;2023-04-03T10:22:00;12.40;66.50
56512;DHT22;42408;53.238;5.686;2023-04-03T10:41:10;12.40;64.60
56512;DHT22;42408;53.238;5.686;2023-04-03T10:43:59;12.40;64.90
56512;DHT22;42408;53.238;5.686;2023-04-03T10:47:00;12.40;63.30
56512;DHT22;42408;53.238;5.686;2023-04-03T10:52:21;12.50;62.80
56512;DHT22;42408;53.238;5.686;2023-04-03T10:57:22;12.40;59.80
56512;DHT22;42408;53.238;5.686;2023-04-03T10:59:56;12.40;59.00
56512;DHT22;42408;53.238;5.686;2023-04-03T11:02:30;12.40;61.10
56512;DHT22;42408;53.238;5.686;2023-04-03T11:05:47;12.40;60.80
56512;DHT22;42408;53.238;5.686;2023-04-03T11:07:50;12.40;59.90
56512;DHT22;42408;53.238;5.686;2023-04-03T11:10:38;12.50;60.70
56512;DHT22;42408;53.238;5.686;2023-04-03T11:13:17;12.30;60.10
56512;DHT22;42408;53.238;5.686;2023-04-03T11:15:45;12.10;59.30
56512;DHT22;42408;53.238;5.686;2023-04-03T11:18:35;12.30;62.20
56512;DHT22;42408;53.238;5.686;2023-04-03T11:21:19;12.40;62.60
56512;DHT22;42408;53.238;5.686;2023-04-03T11:23:47;12.50;62.50
56512;DHT22;42408;53.238;5.686;2023-04-03T11:26:19;12.60;59.40
56512;DHT22;42408;53.238;5.686;2023-04-03T11:28:46;12.50;61.10
56512;DHT22;42408;53.238;5.686;2023-04-03T11:34:18;12.50;60.10
56512;DHT22;42408;53.238;5.686;2023-04-03T11:36:51;12.40;59.90
56512;DHT22;42408;53.238;5.686;2023-04-03T11:41:50;12.20;57.30
56512;DHT22;42408;53.238;5.686;2023-04-03T11:44:35;12.20;57.90
56512;DHT22;42408;53.238;5.686;2023-04-03T11:47:06;12.20;58.50
56512;DHT22;42408;53.238;5.686;2023-04-03T11:58:04;12.60;60.00
56512;DHT22;42408;53.238;5.686;2023-04-03T12:14:12;12.60;59.50
56512;DHT22;42408;53.238;5.686;2023-04-03T12:29:29;12.70;63.60
56512;DHT22;42408;53.238;5.686;2023-04-03T12:40:20;12.90;59.50
56512;DHT22;42408;53.238;5.686;2023-04-03T12:43:01;12.80;60.40
56512;DHT22;42408;53.238;5.686;2023-04-03T12:48:25;12.90;59.00
56512;DHT22;42408;53.238;5.686;2023-04-03T12:50:51;12.80;57.90
56512;DHT22;42408;53.238;5.686;2023-04-03T12:53:28;12.80;59.00
56512;DHT22;42408;53.238;5.686;2023-04-03T12:56:51;12.80;58.50
56512;DHT22;42408;53.238;5.686;2023-04-03T12:59:25;12.80;59.10
56512;DHT22;42408;53.238;5.686;2023-04-03T13:01:59;12.90;59.00
56512;DHT22;42408;53.238;5.686;2023-04-03T13:04:27;12.90;57.40
56512;DHT22;42408;53.238;5.686;2023-04-03T13:06:53;12.70;58.60
56512;DHT22;42408;53.238;5.686;2023-04-03T13:09:27;12.70;61.00
56512;DHT22;42408;53.238;5.686;2023-04-03T13:12:15;12.70;60.40
56512;DHT22;42408;53.238;5.686;2023-04-03T13:14:52;12.70;57.50
56512;DHT22;42408;53.238;5.686;2023-04-03T13:17:18;12.70;59.40
56512;DHT22;42408;53.238;5.686;2023-04-03T13:19:45;12.70;61.00
56512;DHT22;42408;53.238;5.686;2023-04-03T13:22:50;12.80;61.20
56512;DHT22;42408;53.238;5.686;2023-04-03T13:25:19;13.00;61.60
56512;DHT22;42408;53.238;5.686;2023-04-03T13:27:46;13.00;57.40
56512;DHT22;42408;53.238;5.686;2023-04-03T13:30:30;12.80;58.40
56512;DHT22;42408;53.238;5.686;2023-04-03T13:32:57;12.80;60.10
56512;DHT22;42408;53.238;5.686;2023-04-03T13:35:39;12.80;58.30
56512;DHT22;42408;53.238;5.686;2023-04-03T13:43:20;12.70;60.40
56512;DHT22;42408;53.238;5.686;2023-04-03T13:48:42;12.70;59.40
56512;DHT22;42408;53.238;5.686;2023-04-03T13:53:49;12.70;60.00
56512;DHT22;42408;53.238;5.686;2023-04-03T13:56:30;12.70;63.30
56512;DHT22;42408;53.238;5.686;2023-04-03T14:04:26;12.80;62.40
56512;DHT22;42408;53.238;5.686;2023-04-03T14:06:53;12.80;63.30
56512;DHT22;42408;53.238;5.686;2023-04-03T14:09:21;12.80;63.60
56512;DHT22;42408;53.238;5.686;2023-04-03T14:11:49;12.70;61.70
56512;DHT22;42408;53.238;5.686;2023-04-03T14:14:20;12.70;63.60
56512;DHT22;42408;53.238;5.686;2023-04-03T14:16:51;12.80;65.00
56512;DHT22;42408;53.238;5.686;2023-04-03T14:19:22;12.90;61.20
56512;DHT22;42408;53.238;5.686;2023-04-03T14:21:48;12.80;61.70
56512;DHT22;42408;53.238;5.686;2023-04-03T14:24:14;12.70;60.60
56512;DHT22;42408;53.238;5.686;2023-04-03T14:26:40;12.70;58.40
56512;DHT22;42408;53.238;5.686;2023-04-03T14:29:06;12.60;60.00
56512;DHT22;42408;53.238;5.686;2023-04-03T14:31:32;12.70;62.20
56512;DHT22;42408;53.238;5.686;2023-04-03T14:33:57;12.70;61.20
56512;DHT22;42408;53.238;5.686;2023-04-03T14:36:25;12.70;62.40
56512;DHT22;42408;53.238;5.686;2023-04-03T14:38:52;12.70;61.90
56512;DHT22;42408;53.238;5.686;2023-04-03T14:41:19;12.50;62.10
56512;DHT22;42408;53.238;5.686;2023-04-03T14:43:46;12.50;62.50
56512;DHT22;42408;53.238;5.686;2023-04-03T14:46:21;12.40;62.00
56512;DHT22;42408;53.238;5.686;2023-04-03T14:48:48;12.40;61.40
56512;DHT22;42408;53.238;5.686;2023-04-03T14:51:14;12.40;64.40
56512;DHT22;42408;53.238;5.686;2023-04-03T14:53:42;12.50;63.70
56512;DHT22;42408;53.238;5.686;2023-04-03T14:56:15;12.50;60.40
56512;DHT22;42408;53.238;5.686;2023-04-03T14:58:41;12.50;61.80
56512;DHT22;42408;53.238;5.686;2023-04-03T15:01:10;12.40;63.00
56512;DHT22;42408;53.238;5.686;2023-04-03T15:03:37;12.20;62.60
56512;DHT22;42408;53.238;5.686;2023-04-03T15:06:03;12.20;62.90
56512;DHT22;42408;53.238;5.686;2023-04-03T15:08:29;12.20;63.80
56512;DHT22;42408;53.238;5.686;2023-04-03T15:10:55;12.10;62.60
56512;DHT22;42408;53.238;5.686;2023-04-03T15:13:22;12.10;67.80
56512;DHT22;42408;53.238;5.686;2023-04-03T15:15:48;12.00;70.90
56512;DHT22;42408;53.238;5.686;2023-04-03T15:18:20;11.80;73.60
56512;DHT22;42408;53.238;5.686;2023-04-03T15:20:48;11.80;74.00
56512;DHT22;42408;53.238;5.686;2023-04-03T15:23:15;11.60;76.70
56512;DHT22;42408;53.238;5.686;2023-04-03T15:25:43;11.50;78.40
56512;DHT22;42408;53.238;5.686;2023-04-03T15:28:28;11.40;75.90
56512;DHT22;42408;53.238;5.686;2023-04-03T15:30:55;11.10;81.10
56512;DHT22;42408;53.238;5.686;2023-04-03T15:33:21;11.00;81.50
56512;DHT22;42408;53.238;5.686;2023-04-03T15:35:47;11.00;82.00
56512;DHT22;42408;53.238;5.686;2023-04-03T15:38:12;11.00;85.00
56512;DHT22;42408;53.238;5.686;2023-04-03T15:40:38;10.90;87.00
56512;DHT22;42408;53.238;5.686;2023-04-03T15:43:06;10.80;86.70
56512;DHT22;42408;53.238;5.686;2023-04-03T15:45:33;10.70;87.80
56512;DHT22;42408;53.238;5.686;2023-04-03T15:48:01;10.70;87.90
56512;DHT22;42408;53.238;5.686;2023-04-03T15:50:26;10.50;87.50
56512;DHT22;42408;53.238;5.686;2023-04-03T15:52:52;10.40;90.20
56512;DHT22;42408;53.238;5.686;2023-04-03T15:55:24;10.30;92.30
56512;DHT22;42408;53.238;5.686;2023-04-03T15:57:50;10.20;92.50
56512;DHT22;42408;53.238;5.686;2023-04-03T16:00:16;10.20;92.80
56512;DHT22;42408;53.238;5.686;2023-04-03T16:02:44;10.20;93.10
56512;DHT22;42408;53.238;5.686;2023-04-03T16:05:11;10.20;94.50
56512;DHT22;42408;53.238;5.686;2023-04-03T16:07:38;10.20;92.00
56512;DHT22;42408;53.238;5.686;2023-04-03T16:10:04;10.30;91.90
56512;DHT22;42408;53.238;5.686;2023-04-03T16:12:30;10.30;90.80
56512;DHT22;42408;53.238;5.686;2023-04-03T16:14:56;10.30;90.50
56512;DHT22;42408;53.238;5.686;2023-04-03T16:17:22;10.20;90.70
56512;DHT22;42408;53.238;5.686;2023-04-03T16:19:47;10.20;90.70
56512;DHT22;42408;53.238;5.686;2023-04-03T16:22:13;10.20;90.40
56512;DHT22;42408;53.238;5.686;2023-04-03T16:24:39;10.10;90.90
56512;DHT22;42408;53.238;5.686;2023-04-03T16:27:05;10.00;92.10
56512;DHT22;42408;53.238;5.686;2023-04-03T16:29:31;10.00;93.20
56512;DHT22;42408;53.238;5.686;2023-04-03T16:31:57;9.90;91.90
56512;DHT22;42408;53.238;5.686;2023-04-03T16:34:23;10.00;91.70
56512;DHT22;42408;53.238;5.686;2023-04-03T16:36:51;9.80;88.20
56512;DHT22;42408;53.238;5.686;2023-04-03T16:39:18;9.60;90.50
56512;DHT22;42408;53.238;5.686;2023-04-03T16:41:43;9.40;91.40
56512;DHT22;42408;53.238;5.686;2023-04-03T16:44:10;9.30;91.30
56512;DHT22;42408;53.238;5.686;2023-04-03T16:46:36;9.20;93.30
56512;DHT22;42408;53.238;5.686;2023-04-03T16:49:03;9.10;95.30
56512;DHT22;42408;53.238;5.686;2023-04-03T16:51:29;9.00;96.00
56512;DHT22;42408;53.238;5.686;2023-04-03T16:53:55;9.00;95.60
56512;DHT22;42408;53.238;5.686;2023-04-03T16:56:21;8.90;95.20
56512;DHT22;42408;53.238;5.686;2023-04-03T16:58:47;8.80;95.30
56512;DHT22;42408;53.238;5.686;2023-04-03T17:01:15;8.70;97.50
56512;DHT22;42408;53.238;5.686;2023-04-03T17:03:41;8.70;98.10
56512;DHT22;42408;53.238;5.686;2023-04-03T17:06:07;8.60;98.50
56512;DHT22;42408;53.238;5.686;2023-04-03T17:08:33;8.60;99.90
56512;DHT22;42408;53.238;5.686;2023-04-03T17:10:59;8.50;99.90
56512;DHT22;42408;53.238;5.686;2023-04-03T17:13:25;8.50;99.90
56512;DHT22;42408;53.238;5.686;2023-04-03T17:15:56;8.30;99.90
56512;DHT22;42408;53.238;5.686;2023-04-03T17:18:22;8.20;99.90
56512;DHT22;42408;53.238;5.686;2023-04-03T17:20:48;8.00;99.90
56512;DHT22;42408;53.238;5.686;2023-04-03T17:23:14;7.90;99.90
56512;DHT22;42408;53.238;5.686;2023-04-03T17:25:39;7.90;99.90
56512;DHT22;42408;53.238;5.686;2023-04-03T17:28:05;7.80;99.90
56512;DHT22;42408;53.238;5.686;2023-04-03T17:30:31;7.70;99.90
56512;DHT22;42408;53.238;5.686;2023-04-03T17:32:56;7.70;99.90
56512;DHT22;42408;53.238;5.686;2023-04-03T17:35:22;7.70;99.90
56512;DHT22;42408;53.238;5.686;2023-04-03T17:37:48;7.60;99.90
56512;DHT22;42408;53.238;5.686;2023-04-03T17:40:15;7.60;99.90
56512;DHT22;42408;53.238;5.686;2023-04-03T17:42:42;7.60;99.90